sensor_id;sensor_type;location;lat;lon;timestamp;P1;durP1;ratioP1;P2;durP2;ratioP2
823;SDS011;373;49.342;8.146;2023-04-22T00:02:25;5.25;;;4.10;;
823;SDS011;373;49.342;8.146;2023-04-22T00:04:53;4.43;;;4.05;;
823;SDS011;373;49.342;8.146;2023-04-22T00:07:21;4.13;;;3.75;;
823;SDS011;373;49.342;8.146;2023-04-22T00:09:48;4.72;;;4.22;;
823;SDS011;373;49.342;8.146;2023-04-22T00:12:16;3.85;;;3.55;;
823;SDS011;373;49.342;8.146;2023-04-22T00:14:44;3.33;;;3.10;;
823;SDS011;373;49.342;8.146;2023-04-22T00:17:11;3.35;;;3.08;;
823;SDS011;373;49.342;8.146;2023-04-22T00:19:38;3.40;;;3.10;;
823;SDS011;373;49.342;8.146;2023-04-22T00:22:06;3.50;;;3.20;;
823;SDS011;373;49.342;8.146;2023-04-22T00:24:34;3.30;;;3.10;;
823;SDS011;373;49.342;8.146;2023-04-22T00:27:01;3.25;;;2.95;;
823;SDS011;373;49.342;8.146;2023-04-22T00:29:28;3.15;;;2.95;;
823;SDS011;373;49.342;8.146;2023-04-22T00:31:57;2.85;;;2.65;;
823;SDS011;373;49.342;8.146;2023-04-22T00:34:24;2.97;;;2.78;;
823;SDS011;373;49.342;8.146;2023-04-22T00:36:51;2.80;;;2.60;;
823;SDS011;373;49.342;8.146;2023-04-22T00:39:18;2.90;;;2.55;;
823;SDS011;373;49.342;8.146;2023-04-22T00:41:45;2.80;;;2.50;;
823;SDS011;373;49.342;8.146;2023-04-22T00:44:12;2.72;;;2.35;;
823;SDS011;373;49.342;8.146;2023-04-22T00:46:39;2.90;;;2.70;;
823;SDS011;373;49.342;8.146;2023-04-22T00:49:08;3.58;;;2.45;;
823;SDS011;373;49.342;8.146;2023-04-22T00:51:35;2.35;;;2.13;;
823;SDS011;373;49.342;8.146;2023-04-22T00:54:02;2.70;;;2.50;;
823;SDS011;373;49.342;8.146;2023-04-22T00:56:30;2.60;;;2.40;;
823;SDS011;373;49.342;8.146;2023-04-22T00:59:01;3.00;;;2.58;;
823;SDS011;373;49.342;8.146;2023-04-22T01:01:29;3.42;;;2.60;;
823;SDS011;373;49.342;8.146;2023-04-22T01:03:56;2.30;;;2.10;;
823;SDS011;373;49.342;8.146;2023-04-22T01:06:26;2.42;;;2.22;;
823;SDS011;373;49.342;8.146;2023-04-22T01:08:56;2.28;;;2.17;;
823;SDS011;373;49.342;8.146;2023-04-22T01:11:24;3.03;;;2.10;;
823;SDS011;373;49.342;8.146;2023-04-22T01:13:51;2.47;;;2.00;;
823;SDS011;373;49.342;8.146;2023-04-22T01:16:18;2.10;;;1.92;;
823;SDS011;373;49.342;8.146;2023-04-22T01:18:46;2.13;;;1.92;;
823;SDS011;373;49.342;8.146;2023-04-22T01:21:14;2.28;;;2.17;;
823;SDS011;373;49.342;8.146;2023-04-22T01:23:42;3.03;;;2.28;;
823;SDS011;373;49.342;8.146;2023-04-22T01:26:10;2.47;;;2.20;;
823;SDS011;373;49.342;8.146;2023-04-22T01:28:37;2.55;;;2.35;;
823;SDS011;373;49.342;8.146;2023-04-22T01:31:04;3.03;;;2.70;;
823;SDS011;373;49.342;8.146;2023-04-22T01:33:32;3.63;;;2.85;;
823;SDS011;373;49.342;8.146;2023-04-22T01:35:59;2.85;;;2.65;;
823;SDS011;373;49.342;8.146;2023-04-22T01:38:26;2.85;;;2.65;;
823;SDS011;373;49.342;8.146;2023-04-22T01:40:59;4.35;;;3.80;;
823;SDS011;373;49.342;8.146;2023-04-22T01:43:27;3.38;;;3.17;;
823;SDS011;373;49.342;8.146;2023-04-22T01:45:55;5.38;;;3.75;;
823;SDS011;373;49.342;8.146;2023-04-22T01:48:22;4.35;;;4.05;;
823;SDS011;373;49.342;8.146;2023-04-22T01:50:49;5.30;;;4.80;;
823;SDS011;373;49.342;8.146;2023-04-22T01:53:16;4.63;;;4.25;;
823;SDS011;373;49.342;8.146;2023-04-22T01:55:43;4.90;;;4.50;;
823;SDS011;373;49.342;8.146;2023-04-22T01:58:13;5.50;;;5.00;;
823;SDS011;373;49.342;8.146;2023-04-22T02:00:40;4.40;;;4.00;;
823;SDS011;373;49.342;8.146;2023-04-22T02:03:07;4.10;;;3.70;;
823;SDS011;373;49.342;8.146;2023-04-22T02:05:35;4.72;;;4.32;;
823;SDS011;373;49.342;8.146;2023-04-22T02:08:02;5.10;;;4.65;;
823;SDS011;373;49.342;8.146;2023-04-22T02:10:29;4.50;;;4.10;;
823;SDS011;373;49.342;8.146;2023-04-22T02:12:57;4.30;;;3.90;;
823;SDS011;373;49.342;8.146;2023-04-22T02:15:26;4.22;;;3.85;;
823;SDS011;373;49.342;8.146;2023-04-22T02:17:53;4.20;;;3.90;;
823;SDS011;373;49.342;8.146;2023-04-22T02:20:21;3.88;;;3.58;;
823;SDS011;373;49.342;8.146;2023-04-22T02:22:48;3.92;;;3.53;;
823;SDS011;373;49.342;8.146;2023-04-22T02:25:18;3.65;;;3.35;;
823;SDS011;373;49.342;8.146;2023-04-22T02:27:45;4.03;;;3.17;;
823;SDS011;373;49.342;8.146;2023-04-22T02:30:14;3.70;;;3.40;;
823;SDS011;373;49.342;8.146;2023-04-22T02:32:42;3.72;;;3.42;;
823;SDS011;373;49.342;8.146;2023-04-22T02:35:10;3.00;;;2.80;;
823;SDS011;373;49.342;8.146;2023-04-22T02:37:37;3.63;;;3.22;;
823;SDS011;373;49.342;8.146;2023-04-22T02:40:05;3.03;;;2.83;;
823;SDS011;373;49.342;8.146;2023-04-22T02:42:33;2.78;;;2.58;;
823;SDS011;373;49.342;8.146;2023-04-22T02:45:01;3.50;;;2.65;;
823;SDS011;373;49.342;8.146;2023-04-22T02:47:28;2.65;;;2.45;;
823;SDS011;373;49.342;8.146;2023-04-22T02:49:56;2.67;;;2.47;;
823;SDS011;373;49.342;8.146;2023-04-22T02:52:24;3.53;;;2.83;;
823;SDS011;373;49.342;8.146;2023-04-22T02:54:51;2.83;;;2.63;;
823;SDS011;373;49.342;8.146;2023-04-22T02:57:18;3.53;;;3.00;;
823;SDS011;373;49.342;8.146;2023-04-22T02:59:45;2.97;;;2.78;;
823;SDS011;373;49.342;8.146;2023-04-22T03:02:16;2.70;;;2.50;;
823;SDS011;373;49.342;8.146;2023-04-22T03:05:11;2.30;;;2.10;;
823;SDS011;373;49.342;8.146;2023-04-22T03:07:38;3.28;;;2.78;;
823;SDS011;373;49.342;8.146;2023-04-22T03:10:06;2.58;;;2.22;;
823;SDS011;373;49.342;8.146;2023-04-22T03:12:34;2.38;;;2.20;;
823;SDS011;373;49.342;8.146;2023-04-22T03:15:01;2.45;;;2.15;;
823;SDS011;373;49.342;8.146;2023-04-22T03:17:30;2.45;;;2.25;;
823;SDS011;373;49.342;8.146;2023-04-22T03:20:00;2.10;;;2.00;;
823;SDS011;373;49.342;8.146;2023-04-22T03:22:29;2.15;;;1.95;;
823;SDS011;373;49.342;8.146;2023-04-22T03:24:59;2.42;;;2.22;;
823;SDS011;373;49.342;8.146;2023-04-22T03:27:27;2.42;;;2.22;;
823;SDS011;373;49.342;8.146;2023-04-22T03:29:56;3.00;;;2.30;;
823;SDS011;373;49.342;8.146;2023-04-22T03:32:23;1.92;;;1.73;;
823;SDS011;373;49.342;8.146;2023-04-22T03:35:03;2.05;;;1.95;;
823;SDS011;373;49.342;8.146;2023-04-22T03:37:32;2.45;;;2.25;;
823;SDS011;373;49.342;8.146;2023-04-22T03:40:00;2.88;;;2.40;;
823;SDS011;373;49.342;8.146;2023-04-22T03:42:30;2.50;;;2.30;;
823;SDS011;373;49.342;8.146;2023-04-22T03:44:58;2.70;;;2.50;;
823;SDS011;373;49.342;8.146;2023-04-22T03:47:29;2.45;;;2.13;;
823;SDS011;373;49.342;8.146;2023-04-22T03:50:05;2.78;;;2.20;;
823;SDS011;373;49.342;8.146;2023-04-22T03:52:35;2.75;;;1.98;;
823;SDS011;373;49.342;8.146;2023-04-22T03:55:02;2.85;;;2.42;;
823;SDS011;373;49.342;8.146;2023-04-22T03:57:31;3.25;;;2.58;;
823;SDS011;373;49.342;8.146;2023-04-22T03:59:59;2.20;;;2.10;;
823;SDS011;373;49.342;8.146;2023-04-22T04:02:26;2.78;;;2.00;;
823;SDS011;373;49.342;8.146;2023-04-22T04:05:09;2.70;;;2.50;;
823;SDS011;373;49.342;8.146;2023-04-22T04:07:39;2.85;;;2.05;;
823;SDS011;373;49.342;8.146;2023-04-22T04:10:07;2.45;;;2.25;;
823;SDS011;373;49.342;8.146;2023-04-22T04:12:35;2.25;;;2.05;;
823;SDS011;373;49.342;8.146;2023-04-22T04:15:02;2.42;;;2.22;;
823;SDS011;373;49.342;8.146;2023-04-22T04:17:31;2.40;;;2.20;;
823;SDS011;373;49.342;8.146;2023-04-22T04:20:01;3.80;;;2.42;;
823;SDS011;373;49.342;8.146;2023-04-22T04:22:29;2.38;;;2.17;;
823;SDS011;373;49.342;8.146;2023-04-22T04:25:00;2.35;;;2.15;;
823;SDS011;373;49.342;8.146;2023-04-22T04:27:33;2.28;;;2.17;;
823;SDS011;373;49.342;8.146;2023-04-22T04:30:01;2.60;;;2.40;;
823;SDS011;373;49.342;8.146;2023-04-22T04:32:38;2.50;;;2.22;;
823;SDS011;373;49.342;8.146;2023-04-22T04:35:09;3.40;;;2.92;;
823;SDS011;373;49.342;8.146;2023-04-22T04:37:41;3.33;;;3.03;;
823;SDS011;373;49.342;8.146;2023-04-22T04:40:10;3.53;;;3.15;;
823;SDS011;373;49.342;8.146;2023-04-22T04:42:58;4.18;;;3.20;;
823;SDS011;373;49.342;8.146;2023-04-22T04:45:31;3.63;;;3.10;;
823;SDS011;373;49.342;8.146;2023-04-22T04:48:00;3.35;;;3.05;;
823;SDS011;373;49.342;8.146;2023-04-22T04:50:34;3.00;;;2.80;;
823;SDS011;373;49.342;8.146;2023-04-22T04:53:01;2.92;;;2.72;;
823;SDS011;373;49.342;8.146;2023-04-22T04:55:38;3.22;;;2.92;;
823;SDS011;373;49.342;8.146;2023-04-22T04:58:11;2.67;;;2.47;;
823;SDS011;373;49.342;8.146;2023-04-22T05:00:38;3.10;;;2.90;;
823;SDS011;373;49.342;8.146;2023-04-22T05:03:06;3.17;;;2.90;;
823;SDS011;373;49.342;8.146;2023-04-22T05:05:34;3.20;;;2.90;;
823;SDS011;373;49.342;8.146;2023-04-22T05:08:01;3.50;;;3.20;;
823;SDS011;373;49.342;8.146;2023-04-22T05:10:29;4.35;;;2.42;;
823;SDS011;373;49.342;8.146;2023-04-22T05:12:58;3.42;;;3.10;;
823;SDS011;373;49.342;8.146;2023-04-22T05:15:25;2.25;;;2.15;;
823;SDS011;373;49.342;8.146;2023-04-22T05:17:52;3.53;;;2.40;;
823;SDS011;373;49.342;8.146;2023-04-22T05:20:20;2.90;;;2.60;;
823;SDS011;373;49.342;8.146;2023-04-22T05:22:47;2.67;;;2.47;;
823;SDS011;373;49.342;8.146;2023-04-22T05:25:15;2.40;;;2.25;;
823;SDS011;373;49.342;8.146;2023-04-22T05:27:51;2.50;;;2.30;;
823;SDS011;373;49.342;8.146;2023-04-22T05:30:20;3.42;;;2.10;;
823;SDS011;373;49.342;8.146;2023-04-22T05:32:47;2.53;;;2.30;;
823;SDS011;373;49.342;8.146;2023-04-22T05:35:14;2.60;;;2.40;;
823;SDS011;373;49.342;8.146;2023-04-22T05:37:42;3.50;;;2.25;;
823;SDS011;373;49.342;8.146;2023-04-22T05:40:09;2.20;;;2.00;;
823;SDS011;373;49.342;8.146;2023-04-22T05:42:36;2.50;;;2.15;;
823;SDS011;373;49.342;8.146;2023-04-22T05:45:04;2.72;;;1.73;;
823;SDS011;373;49.342;8.146;2023-04-22T05:47:33;2.60;;;2.40;;
823;SDS011;373;49.342;8.146;2023-04-22T05:50:01;2.00;;;1.80;;
823;SDS011;373;49.342;8.146;2023-04-22T05:52:38;2.28;;;2.00;;
823;SDS011;373;49.342;8.146;2023-04-22T05:55:12;1.92;;;1.83;;
823;SDS011;373;49.342;8.146;2023-04-22T05:57:39;2.60;;;2.38;;
823;SDS011;373;49.342;8.146;2023-04-22T06:00:18;4.18;;;2.35;;
823;SDS011;373;49.342;8.146;2023-04-22T06:02:59;2.88;;;2.60;;
823;SDS011;373;49.342;8.146;2023-04-22T06:05:27;3.67;;;2.97;;
823;SDS011;373;49.342;8.146;2023-04-22T06:07:56;3.95;;;3.30;;
823;SDS011;373;49.342;8.146;2023-04-22T06:10:23;4.13;;;3.70;;
823;SDS011;373;49.342;8.146;2023-04-22T06:12:50;4.32;;;3.90;;
823;SDS011;373;49.342;8.146;2023-04-22T06:15:17;4.65;;;4.32;;
823;SDS011;373;49.342;8.146;2023-04-22T06:17:45;4.72;;;4.32;;
823;SDS011;373;49.342;8.146;2023-04-22T06:20:14;4.28;;;3.90;;
823;SDS011;373;49.342;8.146;2023-04-22T06:22:42;4.55;;;4.15;;
823;SDS011;373;49.342;8.146;2023-04-22T06:25:09;4.55;;;4.22;;
823;SDS011;373;49.342;8.146;2023-04-22T06:27:36;4.82;;;4.32;;
823;SDS011;373;49.342;8.146;2023-04-22T06:30:05;4.85;;;4.45;;
823;SDS011;373;49.342;8.146;2023-04-22T06:32:33;4.82;;;4.20;;
823;SDS011;373;49.342;8.146;2023-04-22T06:35:01;5.18;;;4.78;;
823;SDS011;373;49.342;8.146;2023-04-22T06:37:29;5.35;;;4.85;;
823;SDS011;373;49.342;8.146;2023-04-22T06:39:57;4.70;;;4.22;;
823;SDS011;373;49.342;8.146;2023-04-22T06:42:44;5.25;;;4.38;;
823;SDS011;373;49.342;8.146;2023-04-22T06:45:39;5.18;;;4.68;;
823;SDS011;373;49.342;8.146;2023-04-22T06:48:22;5.68;;;5.18;;
823;SDS011;373;49.342;8.146;2023-04-22T06:51:10;6.07;;;4.90;;
823;SDS011;373;49.342;8.146;2023-04-22T06:53:38;7.28;;;5.25;;
823;SDS011;373;49.342;8.146;2023-04-22T06:56:05;5.40;;;4.90;;
823;SDS011;373;49.342;8.146;2023-04-22T06:58:32;5.65;;;5.22;;
823;SDS011;373;49.342;8.146;2023-04-22T07:01:00;6.05;;;5.35;;
823;SDS011;373;49.342;8.146;2023-04-22T07:03:27;6.35;;;5.72;;
823;SDS011;373;49.342;8.146;2023-04-22T07:06:05;6.20;;;5.70;;
823;SDS011;373;49.342;8.146;2023-04-22T07:08:32;6.18;;;5.60;;
823;SDS011;373;49.342;8.146;2023-04-22T07:11:02;6.80;;;6.13;;
823;SDS011;373;49.342;8.146;2023-04-22T07:13:33;7.88;;;5.50;;
823;SDS011;373;49.342;8.146;2023-04-22T07:16:00;6.32;;;5.72;;
823;SDS011;373;49.342;8.146;2023-04-22T07:18:27;5.88;;;5.38;;
823;SDS011;373;49.342;8.146;2023-04-22T07:20:54;5.85;;;5.35;;
823;SDS011;373;49.342;8.146;2023-04-22T07:23:22;5.57;;;4.90;;
823;SDS011;373;49.342;8.146;2023-04-22T07:25:49;5.38;;;4.88;;
823;SDS011;373;49.342;8.146;2023-04-22T07:28:17;4.68;;;4.28;;
823;SDS011;373;49.342;8.146;2023-04-22T07:30:44;6.45;;;3.70;;
823;SDS011;373;49.342;8.146;2023-04-22T07:33:11;3.90;;;3.60;;
823;SDS011;373;49.342;8.146;2023-04-22T07:35:38;3.83;;;3.53;;
823;SDS011;373;49.342;8.146;2023-04-22T07:38:05;4.60;;;3.40;;
823;SDS011;373;49.342;8.146;2023-04-22T07:40:33;3.80;;;3.50;;
823;SDS011;373;49.342;8.146;2023-04-22T07:43:00;4.20;;;3.80;;
823;SDS011;373;49.342;8.146;2023-04-22T07:45:29;3.88;;;3.58;;
823;SDS011;373;49.342;8.146;2023-04-22T07:47:56;3.90;;;3.50;;
823;SDS011;373;49.342;8.146;2023-04-22T07:50:23;4.53;;;4.20;;
823;SDS011;373;49.342;8.146;2023-04-22T07:52:50;5.43;;;4.57;;
823;SDS011;373;49.342;8.146;2023-04-22T07:55:17;4.07;;;3.78;;
823;SDS011;373;49.342;8.146;2023-04-22T07:57:44;6.20;;;4.25;;
823;SDS011;373;49.342;8.146;2023-04-22T08:00:12;5.00;;;4.60;;
823;SDS011;373;49.342;8.146;2023-04-22T08:02:41;4.75;;;4.38;;
823;SDS011;373;49.342;8.146;2023-04-22T08:05:08;4.30;;;4.00;;
823;SDS011;373;49.342;8.146;2023-04-22T08:07:35;5.05;;;4.65;;
823;SDS011;373;49.342;8.146;2023-04-22T08:10:03;6.30;;;4.20;;
823;SDS011;373;49.342;8.146;2023-04-22T08:12:31;3.75;;;3.50;;
823;SDS011;373;49.342;8.146;2023-04-22T08:14:58;4.82;;;4.10;;
823;SDS011;373;49.342;8.146;2023-04-22T08:17:25;4.20;;;3.90;;
823;SDS011;373;49.342;8.146;2023-04-22T08:19:53;4.45;;;3.97;;
823;SDS011;373;49.342;8.146;2023-04-22T08:22:20;4.70;;;4.32;;
823;SDS011;373;49.342;8.146;2023-04-22T08:24:48;4.95;;;3.97;;
823;SDS011;373;49.342;8.146;2023-04-22T08:27:15;3.97;;;3.58;;
823;SDS011;373;49.342;8.146;2023-04-22T08:29:43;3.90;;;3.60;;
823;SDS011;373;49.342;8.146;2023-04-22T08:32:10;4.13;;;3.83;;
823;SDS011;373;49.342;8.146;2023-04-22T08:34:37;4.20;;;3.90;;
823;SDS011;373;49.342;8.146;2023-04-22T08:37:06;4.38;;;4.07;;
823;SDS011;373;49.342;8.146;2023-04-22T08:39:35;3.63;;;3.35;;
823;SDS011;373;49.342;8.146;2023-04-22T08:42:02;4.43;;;4.03;;
823;SDS011;373;49.342;8.146;2023-04-22T08:44:30;4.60;;;4.20;;
823;SDS011;373;49.342;8.146;2023-04-22T08:46:57;4.05;;;3.63;;
823;SDS011;373;49.342;8.146;2023-04-22T08:49:36;3.78;;;3.47;;
823;SDS011;373;49.342;8.146;2023-04-22T08:52:03;3.70;;;3.40;;
823;SDS011;373;49.342;8.146;2023-04-22T08:54:33;4.93;;;4.35;;
823;SDS011;373;49.342;8.146;2023-04-22T08:57:01;4.40;;;4.00;;
823;SDS011;373;49.342;8.146;2023-04-22T08:59:29;4.20;;;3.80;;
823;SDS011;373;49.342;8.146;2023-04-22T09:01:56;3.85;;;3.55;;
823;SDS011;373;49.342;8.146;2023-04-22T09:04:24;4.20;;;3.47;;
823;SDS011;373;49.342;8.146;2023-04-22T09:06:51;4.35;;;3.78;;
823;SDS011;373;49.342;8.146;2023-04-22T09:09:20;3.42;;;3.13;;
823;SDS011;373;49.342;8.146;2023-04-22T09:11:48;5.43;;;3.92;;
823;SDS011;373;49.342;8.146;2023-04-22T09:14:15;3.63;;;3.40;;
823;SDS011;373;49.342;8.146;2023-04-22T09:16:45;4.10;;;3.80;;
823;SDS011;373;49.342;8.146;2023-04-22T09:19:13;4.50;;;4.10;;
823;SDS011;373;49.342;8.146;2023-04-22T09:21:40;5.38;;;4.88;;
823;SDS011;373;49.342;8.146;2023-04-22T09:24:08;4.75;;;4.45;;
823;SDS011;373;49.342;8.146;2023-04-22T09:26:39;5.22;;;4.72;;
823;SDS011;373;49.342;8.146;2023-04-22T09:29:12;5.07;;;4.60;;
823;SDS011;373;49.342;8.146;2023-04-22T09:31:39;4.80;;;4.40;;
823;SDS011;373;49.342;8.146;2023-04-22T09:34:06;5.72;;;5.25;;
823;SDS011;373;49.342;8.146;2023-04-22T09:36:34;4.45;;;4.05;;
823;SDS011;373;49.342;8.146;2023-04-22T09:39:02;3.60;;;3.30;;
823;SDS011;373;49.342;8.146;2023-04-22T09:41:31;3.47;;;3.08;;
823;SDS011;373;49.342;8.146;2023-04-22T09:44:01;4.53;;;4.13;;
823;SDS011;373;49.342;8.146;2023-04-22T09:46:30;4.65;;;4.28;;
823;SDS011;373;49.342;8.146;2023-04-22T09:48:58;4.15;;;3.72;;
823;SDS011;373;49.342;8.146;2023-04-22T09:51:25;4.03;;;3.72;;
823;SDS011;373;49.342;8.146;2023-04-22T09:53:57;4.85;;;4.45;;
823;SDS011;373;49.342;8.146;2023-04-22T09:56:38;4.68;;;4.28;;
823;SDS011;373;49.342;8.146;2023-04-22T09:59:12;4.70;;;4.30;;
823;SDS011;373;49.342;8.146;2023-04-22T10:01:40;5.47;;;5.05;;
823;SDS011;373;49.342;8.146;2023-04-22T10:04:07;5.18;;;4.72;;
823;SDS011;373;49.342;8.146;2023-04-22T10:06:35;4.88;;;4.47;;
823;SDS011;373;49.342;8.146;2023-04-22T10:09:02;5.50;;;5.00;;
823;SDS011;373;49.342;8.146;2023-04-22T10:11:31;4.75;;;4.35;;
823;SDS011;373;49.342;8.146;2023-04-22T10:13:59;5.13;;;4.70;;
823;SDS011;373;49.342;8.146;2023-04-22T10:16:29;4.75;;;4.35;;
823;SDS011;373;49.342;8.146;2023-04-22T10:18:59;4.18;;;3.88;;
823;SDS011;373;49.342;8.146;2023-04-22T10:21:29;4.53;;;4.13;;
823;SDS011;373;49.342;8.146;2023-04-22T10:23:57;4.15;;;3.85;;
823;SDS011;373;49.342;8.146;2023-04-22T10:26:38;4.05;;;3.75;;
823;SDS011;373;49.342;8.146;2023-04-22T10:29:06;3.60;;;3.30;;
823;SDS011;373;49.342;8.146;2023-04-22T10:31:37;3.10;;;2.88;;
823;SDS011;373;49.342;8.146;2023-04-22T10:34:08;4.28;;;3.13;;
823;SDS011;373;49.342;8.146;2023-04-22T10:36:56;3.42;;;3.22;;
823;SDS011;373;49.342;8.146;2023-04-22T10:39:26;3.55;;;3.25;;
823;SDS011;373;49.342;8.146;2023-04-22T10:41:56;3.00;;;2.80;;
823;SDS011;373;49.342;8.146;2023-04-22T10:44:43;2.55;;;2.35;;
823;SDS011;373;49.342;8.146;2023-04-22T10:47:14;3.60;;;2.10;;
823;SDS011;373;49.342;8.146;2023-04-22T10:52:36;1.70;;;1.50;;
823;SDS011;373;49.342;8.146;2023-04-22T10:55:04;1.42;;;1.33;;
823;SDS011;373;49.342;8.146;2023-04-22T10:57:33;2.10;;;1.77;;
823;SDS011;373;49.342;8.146;2023-04-22T11:00:16;1.52;;;1.30;;
823;SDS011;373;49.342;8.146;2023-04-22T11:02:52;1.50;;;1.40;;
823;SDS011;373;49.342;8.146;2023-04-22T11:05:36;2.88;;;1.55;;
823;SDS011;373;49.342;8.146;2023-04-22T11:08:19;2.22;;;1.50;;
823;SDS011;373;49.342;8.146;2023-04-22T11:10:48;3.45;;;1.27;;
823;SDS011;373;49.342;8.146;2023-04-22T11:13:18;1.63;;;1.50;;
823;SDS011;373;49.342;8.146;2023-04-22T11:15:48;2.00;;;1.38;;
823;SDS011;373;49.342;8.146;2023-04-22T11:18:18;1.70;;;1.45;;
823;SDS011;373;49.342;8.146;2023-04-22T11:20:47;2.05;;;1.40;;
823;SDS011;373;49.342;8.146;2023-04-22T11:23:19;3.42;;;1.27;;
823;SDS011;373;49.342;8.146;2023-04-22T11:25:52;1.35;;;1.27;;
823;SDS011;373;49.342;8.146;2023-04-22T11:28:20;2.63;;;1.42;;
823;SDS011;373;49.342;8.146;2023-04-22T11:30:47;3.22;;;1.75;;
823;SDS011;373;49.342;8.146;2023-04-22T11:33:15;1.77;;;1.67;;
823;SDS011;373;49.342;8.146;2023-04-22T11:35:44;2.50;;;1.60;;
823;SDS011;373;49.342;8.146;2023-04-22T11:38:11;1.40;;;1.30;;
823;SDS011;373;49.342;8.146;2023-04-22T11:40:39;1.30;;;1.15;;
823;SDS011;373;49.342;8.146;2023-04-22T11:43:07;2.67;;;1.38;;
823;SDS011;373;49.342;8.146;2023-04-22T11:45:36;2.15;;;1.00;;
823;SDS011;373;49.342;8.146;2023-04-22T11:48:04;1.35;;;1.25;;
823;SDS011;373;49.342;8.146;2023-04-22T11:50:33;2.72;;;1.15;;
823;SDS011;373;49.342;8.146;2023-04-22T11:53:03;1.35;;;1.23;;
823;SDS011;373;49.342;8.146;2023-04-22T11:55:38;2.75;;;1.33;;
823;SDS011;373;49.342;8.146;2023-04-22T11:58:18;1.95;;;1.67;;
823;SDS011;373;49.342;8.146;2023-04-22T12:00:51;1.95;;;1.60;;
823;SDS011;373;49.342;8.146;2023-04-22T12:03:20;2.40;;;1.30;;
823;SDS011;373;49.342;8.146;2023-04-22T12:05:50;1.65;;;1.55;;
823;SDS011;373;49.342;8.146;2023-04-22T12:08:21;2.80;;;1.40;;
823;SDS011;373;49.342;8.146;2023-04-22T12:10:56;1.70;;;1.60;;
823;SDS011;373;49.342;8.146;2023-04-22T12:13:32;1.58;;;1.48;;
823;SDS011;373;49.342;8.146;2023-04-22T12:16:08;1.80;;;1.65;;
823;SDS011;373;49.342;8.146;2023-04-22T12:18:47;3.13;;;1.48;;
823;SDS011;373;49.342;8.146;2023-04-22T12:21:16;1.77;;;1.40;;
823;SDS011;373;49.342;8.146;2023-04-22T12:23:48;3.42;;;1.50;;
823;SDS011;373;49.342;8.146;2023-04-22T12:26:20;2.47;;;1.52;;
823;SDS011;373;49.342;8.146;2023-04-22T12:28:52;3.90;;;1.77;;
823;SDS011;373;49.342;8.146;2023-04-22T12:31:24;2.35;;;1.50;;
823;SDS011;373;49.342;8.146;2023-04-22T12:33:54;1.98;;;1.55;;
823;SDS011;373;49.342;8.146;2023-04-22T12:36:22;2.53;;;1.40;;
823;SDS011;373;49.342;8.146;2023-04-22T12:38:50;1.88;;;1.70;;
823;SDS011;373;49.342;8.146;2023-04-22T12:41:18;2.20;;;1.90;;
823;SDS011;373;49.342;8.146;2023-04-22T12:43:45;3.13;;;1.70;;
823;SDS011;373;49.342;8.146;2023-04-22T12:46:15;1.88;;;1.58;;
823;SDS011;373;49.342;8.146;2023-04-22T12:48:42;1.50;;;1.40;;
823;SDS011;373;49.342;8.146;2023-04-22T12:51:12;1.23;;;1.10;;
823;SDS011;373;49.342;8.146;2023-04-22T12:53:39;1.85;;;1.40;;
823;SDS011;373;49.342;8.146;2023-04-22T12:56:07;2.13;;;1.40;;
823;SDS011;373;49.342;8.146;2023-04-22T12:58:35;2.13;;;1.35;;
823;SDS011;373;49.342;8.146;2023-04-22T13:01:02;1.30;;;1.08;;
823;SDS011;373;49.342;8.146;2023-04-22T13:03:32;2.45;;;1.00;;
823;SDS011;373;49.342;8.146;2023-04-22T13:06:02;3.35;;;1.30;;
823;SDS011;373;49.342;8.146;2023-04-22T13:08:29;2.03;;;0.93;;
823;SDS011;373;49.342;8.146;2023-04-22T13:10:59;1.90;;;0.80;;
823;SDS011;373;49.342;8.146;2023-04-22T13:13:32;2.33;;;1.23;;
823;SDS011;373;49.342;8.146;2023-04-22T13:16:03;2.03;;;1.00;;
823;SDS011;373;49.342;8.146;2023-04-22T13:18:31;1.27;;;0.82;;
823;SDS011;373;49.342;8.146;2023-04-22T13:20:58;2.15;;;0.90;;
823;SDS011;373;49.342;8.146;2023-04-22T13:23:32;1.92;;;0.90;;
823;SDS011;373;49.342;8.146;2023-04-22T13:26:00;1.20;;;1.10;;
823;SDS011;373;49.342;8.146;2023-04-22T13:28:27;2.08;;;1.33;;
823;SDS011;373;49.342;8.146;2023-04-22T13:30:56;1.13;;;0.88;;
823;SDS011;373;49.342;8.146;2023-04-22T13:33:23;2.30;;;1.15;;
823;SDS011;373;49.342;8.146;2023-04-22T13:35:53;1.80;;;1.15;;
823;SDS011;373;49.342;8.146;2023-04-22T13:38:20;1.92;;;0.98;;
823;SDS011;373;49.342;8.146;2023-04-22T13:40:47;2.78;;;0.93;;
823;SDS011;373;49.342;8.146;2023-04-22T13:43:14;2.35;;;0.90;;
823;SDS011;373;49.342;8.146;2023-04-22T13:45:42;1.30;;;0.82;;
823;SDS011;373;49.342;8.146;2023-04-22T13:48:14;1.05;;;0.95;;
823;SDS011;373;49.342;8.146;2023-04-22T13:50:41;1.17;;;0.93;;
823;SDS011;373;49.342;8.146;2023-04-22T13:53:12;1.33;;;1.02;;
823;SDS011;373;49.342;8.146;2023-04-22T13:55:53;2.22;;;1.10;;
823;SDS011;373;49.342;8.146;2023-04-22T13:58:43;1.15;;;0.95;;
823;SDS011;373;49.342;8.146;2023-04-22T14:01:15;2.38;;;1.10;;
823;SDS011;373;49.342;8.146;2023-04-22T14:03:52;2.35;;;1.05;;
823;SDS011;373;49.342;8.146;2023-04-22T14:06:20;2.42;;;1.40;;
823;SDS011;373;49.342;8.146;2023-04-22T14:08:50;1.58;;;0.85;;
823;SDS011;373;49.342;8.146;2023-04-22T14:11:24;1.10;;;0.90;;
823;SDS011;373;49.342;8.146;2023-04-22T14:13:54;1.10;;;0.80;;
823;SDS011;373;49.342;8.146;2023-04-22T14:16:21;1.65;;;1.20;;
823;SDS011;373;49.342;8.146;2023-04-22T14:18:51;1.88;;;1.00;;
823;SDS011;373;49.342;8.146;2023-04-22T14:21:20;1.67;;;1.02;;
823;SDS011;373;49.342;8.146;2023-04-22T14:23:50;1.20;;;1.05;;
823;SDS011;373;49.342;8.146;2023-04-22T14:26:33;1.55;;;0.70;;
823;SDS011;373;49.342;8.146;2023-04-22T14:29:20;1.42;;;1.10;;
823;SDS011;373;49.342;8.146;2023-04-22T14:31:48;1.50;;;0.90;;
823;SDS011;373;49.342;8.146;2023-04-22T14:34:17;2.08;;;1.10;;
823;SDS011;373;49.342;8.146;2023-04-22T14:36:53;1.63;;;0.73;;
823;SDS011;373;49.342;8.146;2023-04-22T14:39:21;0.80;;;0.80;;
823;SDS011;373;49.342;8.146;2023-04-22T14:41:48;3.47;;;1.50;;
823;SDS011;373;49.342;8.146;2023-04-22T14:44:18;2.42;;;1.00;;
823;SDS011;373;49.342;8.146;2023-04-22T14:46:51;1.55;;;1.33;;
823;SDS011;373;49.342;8.146;2023-04-22T14:49:20;1.15;;;1.05;;
823;SDS011;373;49.342;8.146;2023-04-22T14:51:47;0.70;;;0.70;;
823;SDS011;373;49.342;8.146;2023-04-22T14:54:17;2.03;;;1.17;;
823;SDS011;373;49.342;8.146;2023-04-22T14:56:44;2.17;;;1.10;;
823;SDS011;373;49.342;8.146;2023-04-22T14:59:12;1.67;;;1.10;;
823;SDS011;373;49.342;8.146;2023-04-22T15:01:56;1.73;;;1.60;;
823;SDS011;373;49.342;8.146;2023-04-22T15:04:25;2.25;;;1.17;;
823;SDS011;373;49.342;8.146;2023-04-22T15:06:53;1.48;;;1.10;;
823;SDS011;373;49.342;8.146;2023-04-22T15:09:22;1.33;;;1.23;;
823;SDS011;373;49.342;8.146;2023-04-22T15:11:49;1.35;;;1.02;;
823;SDS011;373;49.342;8.146;2023-04-22T15:14:20;1.20;;;1.10;;
823;SDS011;373;49.342;8.146;2023-04-22T15:16:48;1.40;;;1.30;;
823;SDS011;373;49.342;8.146;2023-04-22T15:19:15;0.90;;;0.90;;
823;SDS011;373;49.342;8.146;2023-04-22T15:21:44;1.35;;;1.25;;
823;SDS011;373;49.342;8.146;2023-04-22T15:24:15;3.83;;;1.17;;
823;SDS011;373;49.342;8.146;2023-04-22T15:26:54;1.60;;;1.15;;
823;SDS011;373;49.342;8.146;2023-04-22T15:29:31;2.28;;;1.10;;
823;SDS011;373;49.342;8.146;2023-04-22T15:32:06;1.40;;;0.95;;
823;SDS011;373;49.342;8.146;2023-04-22T15:34:45;2.33;;;1.17;;
823;SDS011;373;49.342;8.146;2023-04-22T15:37:26;3.22;;;1.15;;
823;SDS011;373;49.342;8.146;2023-04-22T15:40:13;1.55;;;1.08;;
823;SDS011;373;49.342;8.146;2023-04-22T15:42:46;1.70;;;1.20;;
823;SDS011;373;49.342;8.146;2023-04-22T15:45:17;2.55;;;1.10;;
823;SDS011;373;49.342;8.146;2023-04-22T15:48:00;0.70;;;0.70;;
823;SDS011;373;49.342;8.146;2023-04-22T15:50:38;1.77;;;1.13;;
823;SDS011;373;49.342;8.146;2023-04-22T15:53:24;1.45;;;0.93;;
823;SDS011;373;49.342;8.146;2023-04-22T15:55:53;1.77;;;1.17;;
823;SDS011;373;49.342;8.146;2023-04-22T15:58:27;1.40;;;0.90;;
823;SDS011;373;49.342;8.146;2023-04-22T16:01:02;1.75;;;1.15;;
823;SDS011;373;49.342;8.146;2023-04-22T16:03:52;1.83;;;1.05;;
823;SDS011;373;49.342;8.146;2023-04-22T16:06:39;1.13;;;1.08;;